sensor_id;sensor_type;location;lat;lon;timestamp;P1;durP1;ratioP1;P2;durP2;ratioP2
19049;SDS011;9657;45.940;12.840;2023-04-25T00:01:03;4.43;;;4.03;;
19049;SDS011;9657;45.940;12.840;2023-04-25T00:03:31;5.90;;;4.10;;
19049;SDS011;9657;45.940;12.840;2023-04-25T00:05:58;5.43;;;4.10;;
19049;SDS011;9657;45.940;12.840;2023-04-25T00:08:27;4.85;;;3.95;;
19049;SDS011;9657;45.940;12.840;2023-04-25T00:10:55;4.53;;;3.78;;
19049;SDS011;9657;45.940;12.840;2023-04-25T00:13:22;5.43;;;3.73;;
19049;SDS011;9657;45.940;12.840;2023-04-25T00:15:50;5.00;;;4.30;;
19049;SDS011;9657;45.940;12.840;2023-04-25T00:18:19;5.60;;;4.23;;
19049;SDS011;9657;45.940;12.840;2023-04-25T00:20:46;5.90;;;4.20;;
19049;SDS011;9657;45.940;12.840;2023-04-25T00:23:14;5.30;;;3.95;;
19049;SDS011;9657;45.940;12.840;2023-04-25T00:25:42;5.60;;;3.88;;
19049;SDS011;9657;45.940;12.840;2023-04-25T00:28:10;7.30;;;4.30;;
19049;SDS011;9657;45.940;12.840;2023-04-25T00:30:37;6.10;;;3.95;;
19049;SDS011;9657;45.940;12.840;2023-04-25T00:33:04;5.33;;;3.47;;
19049;SDS011;9657;45.940;12.840;2023-04-25T00:35:33;6.43;;;3.80;;
19049;SDS011;9657;45.940;12.840;2023-04-25T00:38:00;7.17;;;3.80;;
19049;SDS011;9657;45.940;12.840;2023-04-25T00:40:28;6.80;;;3.60;;
19049;SDS011;9657;45.940;12.840;2023-04-25T00:42:55;5.43;;;3.63;;
19049;SDS011;9657;45.940;12.840;2023-04-25T00:45:22;5.07;;;3.67;;
19049;SDS011;9657;45.940;12.840;2023-04-25T00:47:54;4.43;;;3.33;;
19049;SDS011;9657;45.940;12.840;2023-04-25T00:50:21;4.90;;;3.50;;
19049;SDS011;9657;45.940;12.840;2023-04-25T00:52:49;4.67;;;3.63;;
19049;SDS011;9657;45.940;12.840;2023-04-25T00:55:17;5.50;;;3.73;;
19049;SDS011;9657;45.940;12.840;2023-04-25T00:57:44;5.63;;;3.50;;
19049;SDS011;9657;45.940;12.840;2023-04-25T01:02:52;4.57;;;3.20;;
19049;SDS011;9657;45.940;12.840;2023-04-25T01:05:19;5.43;;;3.80;;
19049;SDS011;9657;45.940;12.840;2023-04-25T01:07:46;4.27;;;3.20;;
19049;SDS011;9657;45.940;12.840;2023-04-25T01:10:14;4.07;;;3.23;;
19049;SDS011;9657;45.940;12.840;2023-04-25T01:12:41;5.33;;;3.00;;
19049;SDS011;9657;45.940;12.840;2023-04-25T01:15:09;5.70;;;3.60;;
19049;SDS011;9657;45.940;12.840;2023-04-25T01:17:36;4.07;;;3.43;;
19049;SDS011;9657;45.940;12.840;2023-04-25T01:20:04;4.60;;;2.90;;
19049;SDS011;9657;45.940;12.840;2023-04-25T01:22:36;4.38;;;3.40;;
19049;SDS011;9657;45.940;12.840;2023-04-25T01:25:03;3.95;;;3.50;;
19049;SDS011;9657;45.940;12.840;2023-04-25T01:27:31;3.55;;;3.22;;
19049;SDS011;9657;45.940;12.840;2023-04-25T01:29:58;4.60;;;3.72;;
19049;SDS011;9657;45.940;12.840;2023-04-25T01:32:26;7.13;;;3.65;;
19049;SDS011;9657;45.940;12.840;2023-04-25T01:34:53;4.53;;;3.35;;
19049;SDS011;9657;45.940;12.840;2023-04-25T01:37:20;4.95;;;3.60;;
19049;SDS011;9657;45.940;12.840;2023-04-25T01:39:49;4.13;;;3.23;;
19049;SDS011;9657;45.940;12.840;2023-04-25T01:42:17;5.50;;;3.70;;
19049;SDS011;9657;45.940;12.840;2023-04-25T01:44:44;4.77;;;3.53;;
19049;SDS011;9657;45.940;12.840;2023-04-25T01:47:11;4.18;;;3.00;;
19049;SDS011;9657;45.940;12.840;2023-04-25T01:49:38;4.93;;;3.10;;
19049;SDS011;9657;45.940;12.840;2023-04-25T01:52:06;3.53;;;2.95;;
19049;SDS011;9657;45.940;12.840;2023-04-25T01:54:33;4.00;;;3.00;;
19049;SDS011;9657;45.940;12.840;2023-04-25T01:57:01;4.03;;;3.20;;
19049;SDS011;9657;45.940;12.840;2023-04-25T01:59:28;3.08;;;2.75;;
19049;SDS011;9657;45.940;12.840;2023-04-25T02:01:55;4.72;;;3.38;;
19049;SDS011;9657;45.940;12.840;2023-04-25T02:04:22;3.33;;;2.80;;
19049;SDS011;9657;45.940;12.840;2023-04-25T02:06:50;3.57;;;2.93;;
19049;SDS011;9657;45.940;12.840;2023-04-25T02:09:17;3.27;;;2.50;;
19049;SDS011;9657;45.940;12.840;2023-04-25T02:11:44;3.57;;;2.80;;
19049;SDS011;9657;45.940;12.840;2023-04-25T02:14:12;4.37;;;3.20;;
19049;SDS011;9657;45.940;12.840;2023-04-25T02:16:39;3.23;;;2.50;;
19049;SDS011;9657;45.940;12.840;2023-04-25T02:19:08;4.32;;;3.10;;
19049;SDS011;9657;45.940;12.840;2023-04-25T02:21:35;3.10;;;2.80;;
19049;SDS011;9657;45.940;12.840;2023-04-25T02:24:03;5.27;;;3.10;;
19049;SDS011;9657;45.940;12.840;2023-04-25T02:26:30;4.07;;;2.55;;
19049;SDS011;9657;45.940;12.840;2023-04-25T02:28:57;4.43;;;2.87;;
19049;SDS011;9657;45.940;12.840;2023-04-25T02:31:26;3.53;;;2.87;;
19049;SDS011;9657;45.940;12.840;2023-04-25T02:33:53;3.87;;;2.90;;
19049;SDS011;9657;45.940;12.840;2023-04-25T02:36:20;3.30;;;2.57;;
19049;SDS011;9657;45.940;12.840;2023-04-25T02:38:47;3.60;;;2.60;;
19049;SDS011;9657;45.940;12.840;2023-04-25T02:41:14;4.17;;;3.17;;
19049;SDS011;9657;45.940;12.840;2023-04-25T02:43:41;3.95;;;2.80;;
19049;SDS011;9657;45.940;12.840;2023-04-25T02:46:08;3.73;;;3.00;;
19049;SDS011;9657;45.940;12.840;2023-04-25T02:48:36;4.07;;;2.63;;
19049;SDS011;9657;45.940;12.840;2023-04-25T02:51:03;3.50;;;3.17;;
19049;SDS011;9657;45.940;12.840;2023-04-25T02:53:31;3.33;;;2.13;;
19049;SDS011;9657;45.940;12.840;2023-04-25T02:55:58;2.80;;;2.55;;
19049;SDS011;9657;45.940;12.840;2023-04-25T02:58:25;4.57;;;2.97;;
19049;SDS011;9657;45.940;12.840;2023-04-25T03:00:52;2.40;;;2.20;;
19049;SDS011;9657;45.940;12.840;2023-04-25T03:03:19;2.65;;;2.45;;
19049;SDS011;9657;45.940;12.840;2023-04-25T03:05:48;3.53;;;2.72;;
19049;SDS011;9657;45.940;12.840;2023-04-25T03:08:15;3.45;;;2.35;;
19049;SDS011;9657;45.940;12.840;2023-04-25T03:10:42;3.28;;;2.30;;
19049;SDS011;9657;45.940;12.840;2023-04-25T03:13:10;3.30;;;2.75;;
19049;SDS011;9657;45.940;12.840;2023-04-25T03:15:37;3.63;;;2.70;;
19049;SDS011;9657;45.940;12.840;2023-04-25T03:18:04;2.30;;;2.10;;
19049;SDS011;9657;45.940;12.840;2023-04-25T03:20:31;2.97;;;2.30;;
19049;SDS011;9657;45.940;12.840;2023-04-25T03:23:00;3.37;;;2.40;;
19049;SDS011;9657;45.940;12.840;2023-04-25T03:25:27;3.08;;;2.50;;
19049;SDS011;9657;45.940;12.840;2023-04-25T03:27:54;3.43;;;2.50;;
19049;SDS011;9657;45.940;12.840;2023-04-25T03:30:21;4.07;;;2.60;;
19049;SDS011;9657;45.940;12.840;2023-04-25T03:32:48;2.90;;;2.60;;
19049;SDS011;9657;45.940;12.840;2023-04-25T03:35:15;3.10;;;2.40;;
19049;SDS011;9657;45.940;12.840;2023-04-25T03:37:42;3.53;;;2.20;;
19049;SDS011;9657;45.940;12.840;2023-04-25T03:40:12;2.93;;;2.50;;
19049;SDS011;9657;45.940;12.840;2023-04-25T03:42:39;2.47;;;2.10;;
19049;SDS011;9657;45.940;12.840;2023-04-25T03:45:06;2.60;;;2.10;;
19049;SDS011;9657;45.940;12.840;2023-04-25T03:47:34;2.60;;;2.33;;
19049;SDS011;9657;45.940;12.840;2023-04-25T03:50:01;3.47;;;2.43;;
19049;SDS011;9657;45.940;12.840;2023-04-25T03:52:28;4.70;;;2.47;;
19049;SDS011;9657;45.940;12.840;2023-04-25T03:54:55;2.90;;;2.13;;
19049;SDS011;9657;45.940;12.840;2023-04-25T03:57:23;2.60;;;2.00;;
19049;SDS011;9657;45.940;12.840;2023-04-25T03:59:50;2.57;;;2.10;;
19049;SDS011;9657;45.940;12.840;2023-04-25T04:02:17;4.03;;;2.30;;
19049;SDS011;9657;45.940;12.840;2023-04-25T04:04:44;2.30;;;2.10;;
19049;SDS011;9657;45.940;12.840;2023-04-25T04:07:11;2.83;;;2.20;;
19049;SDS011;9657;45.940;12.840;2023-04-25T04:09:39;4.13;;;2.60;;
19049;SDS011;9657;45.940;12.840;2023-04-25T04:12:06;3.20;;;2.27;;
19049;SDS011;9657;45.940;12.840;2023-04-25T04:14:34;3.30;;;2.43;;
19049;SDS011;9657;45.940;12.840;2023-04-25T04:17:01;2.60;;;2.13;;
19049;SDS011;9657;45.940;12.840;2023-04-25T04:19:28;2.43;;;2.07;;
19049;SDS011;9657;45.940;12.840;2023-04-25T04:21:55;2.63;;;2.13;;
19049;SDS011;9657;45.940;12.840;2023-04-25T04:24:22;2.63;;;2.40;;
19049;SDS011;9657;45.940;12.840;2023-04-25T04:26:50;2.43;;;2.20;;
19049;SDS011;9657;45.940;12.840;2023-04-25T04:29:17;3.70;;;2.37;;
19049;SDS011;9657;45.940;12.840;2023-04-25T04:31:48;2.73;;;2.20;;
19049;SDS011;9657;45.940;12.840;2023-04-25T04:34:16;2.87;;;2.20;;
19049;SDS011;9657;45.940;12.840;2023-04-25T04:36:43;3.10;;;2.17;;
19049;SDS011;9657;45.940;12.840;2023-04-25T04:39:11;2.20;;;1.80;;
19049;SDS011;9657;45.940;12.840;2023-04-25T04:41:38;3.10;;;2.60;;
19049;SDS011;9657;45.940;12.840;2023-04-25T04:44:05;1.83;;;1.73;;
19049;SDS011;9657;45.940;12.840;2023-04-25T04:46:34;3.07;;;1.77;;
19049;SDS011;9657;45.940;12.840;2023-04-25T04:49:04;2.83;;;2.57;;
19049;SDS011;9657;45.940;12.840;2023-04-25T04:51:31;2.60;;;1.90;;
19049;SDS011;9657;45.940;12.840;2023-04-25T04:53:58;1.70;;;1.57;;
19049;SDS011;9657;45.940;12.840;2023-04-25T04:56:27;3.00;;;2.30;;
19049;SDS011;9657;45.940;12.840;2023-04-25T04:58:56;3.60;;;1.77;;
19049;SDS011;9657;45.940;12.840;2023-04-25T05:01:23;3.10;;;2.23;;
19049;SDS011;9657;45.940;12.840;2023-04-25T05:03:51;4.20;;;2.60;;
19049;SDS011;9657;45.940;12.840;2023-04-25T05:06:19;2.90;;;2.00;;
19049;SDS011;9657;45.940;12.840;2023-04-25T05:08:46;3.33;;;2.10;;
19049;SDS011;9657;45.940;12.840;2023-04-25T05:11:14;2.30;;;2.03;;
19049;SDS011;9657;45.940;12.840;2023-04-25T05:13:41;3.40;;;1.80;;
19049;SDS011;9657;45.940;12.840;2023-04-25T05:16:08;5.40;;;2.05;;
19049;SDS011;9657;45.940;12.840;2023-04-25T05:18:35;2.47;;;1.90;;
19049;SDS011;9657;45.940;12.840;2023-04-25T05:21:02;2.97;;;2.10;;
19049;SDS011;9657;45.940;12.840;2023-04-25T05:23:30;2.77;;;1.70;;
19049;SDS011;9657;45.940;12.840;2023-04-25T05:25:58;2.72;;;1.85;;
19049;SDS011;9657;45.940;12.840;2023-04-25T05:28:25;3.47;;;2.00;;
19049;SDS011;9657;45.940;12.840;2023-04-25T05:30:52;2.80;;;1.90;;
19049;SDS011;9657;45.940;12.840;2023-04-25T05:33:20;2.30;;;2.10;;
19049;SDS011;9657;45.940;12.840;2023-04-25T05:35:47;5.17;;;2.17;;
19049;SDS011;9657;45.940;12.840;2023-04-25T05:38:14;2.03;;;1.90;;
19049;SDS011;9657;45.940;12.840;2023-04-25T05:40:43;3.63;;;1.93;;
19049;SDS011;9657;45.940;12.840;2023-04-25T05:43:10;3.70;;;1.70;;
19049;SDS011;9657;45.940;12.840;2023-04-25T05:45:37;2.30;;;1.87;;
19049;SDS011;9657;45.940;12.840;2023-04-25T05:48:04;2.57;;;2.00;;
19049;SDS011;9657;45.940;12.840;2023-04-25T05:50:31;3.37;;;2.00;;
19049;SDS011;9657;45.940;12.840;2023-04-25T05:52:58;2.83;;;2.00;;
19049;SDS011;9657;45.940;12.840;2023-04-25T05:55:25;2.60;;;1.83;;
19049;SDS011;9657;45.940;12.840;2023-04-25T05:57:53;2.10;;;1.67;;
19049;SDS011;9657;45.940;12.840;2023-04-25T06:00:20;2.33;;;1.90;;
19049;SDS011;9657;45.940;12.840;2023-04-25T06:02:48;3.03;;;1.90;;
19049;SDS011;9657;45.940;12.840;2023-04-25T06:05:15;3.43;;;1.80;;
19049;SDS011;9657;45.940;12.840;2023-04-25T06:07:43;2.90;;;1.90;;
19049;SDS011;9657;45.940;12.840;2023-04-25T06:10:10;2.53;;;1.70;;
19049;SDS011;9657;45.940;12.840;2023-04-25T06:12:37;3.73;;;2.00;;
19049;SDS011;9657;45.940;12.840;2023-04-25T06:15:06;3.10;;;1.70;;
19049;SDS011;9657;45.940;12.840;2023-04-25T06:17:33;5.23;;;2.37;;
19049;SDS011;9657;45.940;12.840;2023-04-25T06:20:00;3.53;;;1.70;;
19049;SDS011;9657;45.940;12.840;2023-04-25T06:22:28;4.70;;;1.87;;
19049;SDS011;9657;45.940;12.840;2023-04-25T06:24:55;4.40;;;2.10;;
19049;SDS011;9657;45.940;12.840;2023-04-25T06:27:24;3.17;;;1.75;;
19049;SDS011;9657;45.940;12.840;2023-04-25T06:29:51;2.70;;;2.10;;
19049;SDS011;9657;45.940;12.840;2023-04-25T06:32:19;3.47;;;1.80;;
19049;SDS011;9657;45.940;12.840;2023-04-25T06:34:46;2.40;;;1.97;;
19049;SDS011;9657;45.940;12.840;2023-04-25T06:37:13;4.47;;;2.23;;
19049;SDS011;9657;45.940;12.840;2023-04-25T06:39:40;6.97;;;2.33;;
19049;SDS011;9657;45.940;12.840;2023-04-25T06:42:07;5.17;;;2.10;;
19049;SDS011;9657;45.940;12.840;2023-04-25T06:44:35;4.30;;;1.77;;
19049;SDS011;9657;45.940;12.840;2023-04-25T06:47:02;4.40;;;2.40;;
19049;SDS011;9657;45.940;12.840;2023-04-25T06:49:30;6.70;;;2.50;;
19049;SDS011;9657;45.940;12.840;2023-04-25T06:51:57;5.57;;;2.03;;
19049;SDS011;9657;45.940;12.840;2023-04-25T06:54:24;6.33;;;2.37;;
19049;SDS011;9657;45.940;12.840;2023-04-25T06:56:52;5.53;;;2.77;;
19049;SDS011;9657;45.940;12.840;2023-04-25T06:59:19;4.73;;;2.27;;
19049;SDS011;9657;45.940;12.840;2023-04-25T07:01:46;3.53;;;1.90;;
19049;SDS011;9657;45.940;12.840;2023-04-25T07:04:13;3.47;;;2.10;;
19049;SDS011;9657;45.940;12.840;2023-04-25T07:06:42;3.17;;;2.40;;
19049;SDS011;9657;45.940;12.840;2023-04-25T07:09:09;4.20;;;2.00;;
19049;SDS011;9657;45.940;12.840;2023-04-25T07:11:36;7.87;;;2.20;;
19049;SDS011;9657;45.940;12.840;2023-04-25T07:14:03;3.00;;;1.67;;
19049;SDS011;9657;45.940;12.840;2023-04-25T07:16:31;6.23;;;2.13;;
19049;SDS011;9657;45.940;12.840;2023-04-25T07:18:58;2.40;;;2.07;;
19049;SDS011;9657;45.940;12.840;2023-04-25T07:21:25;5.90;;;1.90;;
19049;SDS011;9657;45.940;12.840;2023-04-25T07:23:54;5.47;;;2.83;;
19049;SDS011;9657;45.940;12.840;2023-04-25T07:26:21;6.27;;;2.40;;
19049;SDS011;9657;45.940;12.840;2023-04-25T07:28:48;2.77;;;1.87;;
19049;SDS011;9657;45.940;12.840;2023-04-25T07:31:16;5.30;;;2.13;;
19049;SDS011;9657;45.940;12.840;2023-04-25T07:33:43;7.50;;;2.43;;
19049;SDS011;9657;45.940;12.840;2023-04-25T07:36:11;3.42;;;2.50;;
19049;SDS011;9657;45.940;12.840;2023-04-25T07:38:38;5.70;;;2.53;;
19049;SDS011;9657;45.940;12.840;2023-04-25T07:41:06;4.97;;;2.17;;
19049;SDS011;9657;45.940;12.840;2023-04-25T07:43:34;5.00;;;2.00;;
19049;SDS011;9657;45.940;12.840;2023-04-25T07:46:01;3.80;;;1.70;;
19049;SDS011;9657;45.940;12.840;2023-04-25T07:48:28;7.13;;;2.38;;
19049;SDS011;9657;45.940;12.840;2023-04-25T07:50:55;8.40;;;2.75;;
19049;SDS011;9657;45.940;12.840;2023-04-25T07:53:22;4.82;;;2.10;;
19049;SDS011;9657;45.940;12.840;2023-04-25T07:55:49;4.20;;;1.87;;
19049;SDS011;9657;45.940;12.840;2023-04-25T07:58:18;4.60;;;2.40;;
19049;SDS011;9657;45.940;12.840;2023-04-25T08:00:47;4.37;;;2.00;;
19049;SDS011;9657;45.940;12.840;2023-04-25T08:03:14;3.50;;;1.93;;
19049;SDS011;9657;45.940;12.840;2023-04-25T08:05:41;3.67;;;2.00;;
19049;SDS011;9657;45.940;12.840;2023-04-25T08:08:08;5.13;;;2.07;;
19049;SDS011;9657;45.940;12.840;2023-04-25T08:10:35;5.67;;;2.00;;
19049;SDS011;9657;45.940;12.840;2023-04-25T08:13:02;3.78;;;2.20;;
19049;SDS011;9657;45.940;12.840;2023-04-25T08:15:31;5.88;;;2.45;;
19049;SDS011;9657;45.940;12.840;2023-04-25T08:17:58;4.10;;;2.08;;
19049;SDS011;9657;45.940;12.840;2023-04-25T08:20:25;6.13;;;2.25;;
19049;SDS011;9657;45.940;12.840;2023-04-25T08:22:52;5.13;;;2.40;;
19049;SDS011;9657;45.940;12.840;2023-04-25T08:25:19;4.70;;;2.40;;
19049;SDS011;9657;45.940;12.840;2023-04-25T08:27:46;8.57;;;2.35;;
19049;SDS011;9657;45.940;12.840;2023-04-25T08:30:13;14.32;;;2.63;;
19049;SDS011;9657;45.940;12.840;2023-04-25T08:32:42;11.87;;;2.73;;
19049;SDS011;9657;45.940;12.840;2023-04-25T08:35:09;5.45;;;2.38;;
19049;SDS011;9657;45.940;12.840;2023-04-25T08:37:36;5.50;;;2.30;;
19049;SDS011;9657;45.940;12.840;2023-04-25T08:40:03;6.10;;;2.13;;
19049;SDS011;9657;45.940;12.840;2023-04-25T08:42:33;5.13;;;2.37;;
19049;SDS011;9657;45.940;12.840;2023-04-25T08:45:01;5.30;;;2.28;;
19049;SDS011;9657;45.940;12.840;2023-04-25T08:47:29;3.42;;;2.00;;
19049;SDS011;9657;45.940;12.840;2023-04-25T08:50:00;3.53;;;2.50;;
19049;SDS011;9657;45.940;12.840;2023-04-25T08:52:32;7.57;;;2.37;;
19049;SDS011;9657;45.940;12.840;2023-04-25T08:55:03;6.50;;;2.43;;
19049;SDS011;9657;45.940;12.840;2023-04-25T08:57:35;7.17;;;2.30;;
19049;SDS011;9657;45.940;12.840;2023-04-25T09:00:04;5.10;;;2.33;;
19049;SDS011;9657;45.940;12.840;2023-04-25T09:02:33;4.37;;;2.07;;
19049;SDS011;9657;45.940;12.840;2023-04-25T09:05:02;4.50;;;1.70;;
19049;SDS011;9657;45.940;12.840;2023-04-25T09:07:30;4.13;;;2.08;;
19049;SDS011;9657;45.940;12.840;2023-04-25T09:09:57;3.60;;;2.00;;
19049;SDS011;9657;45.940;12.840;2023-04-25T09:12:24;4.43;;;1.88;;
19049;SDS011;9657;45.940;12.840;2023-04-25T09:15:00;4.38;;;2.03;;
19049;SDS011;9657;45.940;12.840;2023-04-25T09:17:32;4.68;;;2.38;;
19049;SDS011;9657;45.940;12.840;2023-04-25T09:20:07;2.70;;;2.00;;
19049;SDS011;9657;45.940;12.840;2023-04-25T09:22:36;3.07;;;2.33;;
19049;SDS011;9657;45.940;12.840;2023-04-25T09:25:03;4.47;;;2.30;;
19049;SDS011;9657;45.940;12.840;2023-04-25T09:27:34;3.10;;;1.93;;
19049;SDS011;9657;45.940;12.840;2023-04-25T09:30:02;4.73;;;2.40;;
19049;SDS011;9657;45.940;12.840;2023-04-25T09:32:30;3.03;;;2.33;;
19049;SDS011;9657;45.940;12.840;2023-04-25T09:34:57;4.83;;;1.73;;
19049;SDS011;9657;45.940;12.840;2023-04-25T09:37:26;2.87;;;2.10;;
19049;SDS011;9657;45.940;12.840;2023-04-25T09:39:55;4.05;;;1.80;;
19049;SDS011;9657;45.940;12.840;2023-04-25T09:42:24;4.53;;;2.10;;
19049;SDS011;9657;45.940;12.840;2023-04-25T09:44:54;5.43;;;2.43;;
19049;SDS011;9657;45.940;12.840;2023-04-25T09:47:22;2.77;;;1.83;;
19049;SDS011;9657;45.940;12.840;2023-04-25T09:49:50;3.47;;;2.10;;
19049;SDS011;9657;45.940;12.840;2023-04-25T09:52:18;2.83;;;1.87;;
19049;SDS011;9657;45.940;12.840;2023-04-25T09:54:48;3.50;;;2.33;;
19049;SDS011;9657;45.940;12.840;2023-04-25T09:57:16;2.13;;;1.67;;
19049;SDS011;9657;45.940;12.840;2023-04-25T09:59:45;3.05;;;2.10;;
19049;SDS011;9657;45.940;12.840;2023-04-25T10:02:13;2.92;;;2.30;;
19049;SDS011;9657;45.940;12.840;2023-04-25T10:04:41;3.88;;;2.15;;
19049;SDS011;9657;45.940;12.840;2023-04-25T10:07:13;3.03;;;2.03;;
19049;SDS011;9657;45.940;12.840;2023-04-25T10:09:41;3.60;;;2.20;;
19049;SDS011;9657;45.940;12.840;2023-04-25T10:12:12;3.10;;;1.70;;
19049;SDS011;9657;45.940;12.840;2023-04-25T10:14:39;2.63;;;2.30;;
19049;SDS011;9657;45.940;12.840;2023-04-25T10:17:06;2.90;;;1.90;;
19049;SDS011;9657;45.940;12.840;2023-04-25T10:19:36;2.90;;;2.17;;
19049;SDS011;9657;45.940;12.840;2023-04-25T10:22:06;3.13;;;1.95;;
19049;SDS011;9657;45.940;12.840;2023-04-25T10:24:36;4.63;;;2.10;;
19049;SDS011;9657;45.940;12.840;2023-04-25T10:27:05;4.70;;;2.55;;
19049;SDS011;9657;45.940;12.840;2023-04-25T10:29:34;2.90;;;1.97;;
19049;SDS011;9657;45.940;12.840;2023-04-25T10:32:02;2.38;;;1.90;;
19049;SDS011;9657;45.940;12.840;2023-04-25T10:34:39;2.40;;;2.10;;
19049;SDS011;9657;45.940;12.840;2023-04-25T10:37:10;4.28;;;2.30;;
19049;SDS011;9657;45.940;12.840;2023-04-25T10:39:38;3.53;;;1.93;;
19049;SDS011;9657;45.940;12.840;2023-04-25T10:42:06;2.60;;;1.90;;
19049;SDS011;9657;45.940;12.840;2023-04-25T10:44:36;2.27;;;2.00;;
19049;SDS011;9657;45.940;12.840;2023-04-25T10:47:05;3.93;;;2.00;;
19049;SDS011;9657;45.940;12.840;2023-04-25T10:49:35;3.20;;;1.95;;
19049;SDS011;9657;45.940;12.840;2023-04-25T10:52:13;2.27;;;1.80;;
19049;SDS011;9657;45.940;12.840;2023-04-25T10:54:41;3.30;;;2.07;;
19049;SDS011;9657;45.940;12.840;2023-04-25T11:00:15;2.40;;;1.90;;
19049;SDS011;9657;45.940;12.840;2023-04-25T11:02:44;1.90;;;1.80;;
19049;SDS011;9657;45.940;12.840;2023-04-25T11:05:18;3.05;;;1.85;;
19049;SDS011;9657;45.940;12.840;2023-04-25T11:07:53;2.97;;;1.90;;
19049;SDS011;9657;45.940;12.840;2023-04-25T11:10:24;2.47;;;1.98;;
19049;SDS011;9657;45.940;12.840;2023-04-25T11:12:52;2.60;;;2.13;;
19049;SDS011;9657;45.940;12.840;2023-04-25T11:15:20;2.67;;;1.80;;
19049;SDS011;9657;45.940;12.840;2023-04-25T11:17:48;2.67;;;1.90;;
19049;SDS011;9657;45.940;12.840;2023-04-25T11:20:17;2.93;;;2.00;;
19049;SDS011;9657;45.940;12.840;2023-04-25T11:22:44;2.63;;;2.07;;
19049;SDS011;9657;45.940;12.840;2023-04-25T11:25:12;2.07;;;1.80;;
19049;SDS011;9657;45.940;12.840;2023-04-25T11:27:49;2.13;;;1.77;;
19049;SDS011;9657;45.940;12.840;2023-04-25T11:30:17;1.70;;;1.60;;
19049;SDS011;9657;45.940;12.840;2023-04-25T11:32:46;3.80;;;1.70;;
19049;SDS011;9657;45.940;12.840;2023-04-25T11:35:13;3.13;;;2.00;;
19049;SDS011;9657;45.940;12.840;2023-04-25T11:37:41;2.33;;;1.90;;
19049;SDS011;9657;45.940;12.840;2023-04-25T11:40:09;2.47;;;2.10;;
19049;SDS011;9657;45.940;12.840;2023-04-25T11:42:39;2.13;;;1.80;;
19049;SDS011;9657;45.940;12.840;2023-04-25T11:45:09;2.67;;;1.67;;
19049;SDS011;9657;45.940;12.840;2023-04-25T11:47:37;2.23;;;1.90;;
19049;SDS011;9657;45.940;12.840;2023-04-25T11:50:06;2.83;;;2.07;;
19049;SDS011;9657;45.940;12.840;2023-04-25T11:52:37;2.10;;;1.70;;
19049;SDS011;9657;45.940;12.840;2023-04-25T11:55:06;2.07;;;1.70;;
19049;SDS011;9657;45.940;12.840;2023-04-25T11:57:35;3.17;;;2.10;;
19049;SDS011;9657;45.940;12.840;2023-04-25T12:00:08;2.53;;;2.13;;
19049;SDS011;9657;45.940;12.840;2023-04-25T12:02:37;2.10;;;1.77;;
19049;SDS011;9657;45.940;12.840;2023-04-25T12:05:08;2.23;;;2.03;;
19049;SDS011;9657;45.940;12.840;2023-04-25T12:07:36;2.67;;;1.70;;
19049;SDS011;9657;45.940;12.840;2023-04-25T12:10:04;1.80;;;1.70;;
19049;SDS011;9657;45.940;12.840;2023-04-25T12:12:33;4.27;;;1.93;;
19049;SDS011;9657;45.940;12.840;2023-04-25T12:15:10;2.70;;;1.93;;
19049;SDS011;9657;45.940;12.840;2023-04-25T12:17:40;2.73;;;1.97;;
19049;SDS011;9657;45.940;12.840;2023-04-25T12:20:10;3.17;;;1.70;;
19049;SDS011;9657;45.940;12.840;2023-04-25T12:22:40;2.77;;;1.70;;
19049;SDS011;9657;45.940;12.840;2023-04-25T12:25:09;3.17;;;2.10;;
19049;SDS011;9657;45.940;12.840;2023-04-25T12:27:37;2.87;;;1.90;;
19049;SDS011;9657;45.940;12.840;2023-04-25T12:30:08;3.43;;;1.53;;
19049;SDS011;9657;45.940;12.840;2023-04-25T12:32:36;3.10;;;2.30;;
19049;SDS011;9657;45.940;12.840;2023-04-25T12:35:04;2.67;;;1.57;;
19049;SDS011;9657;45.940;12.840;2023-04-25T12:37:32;2.90;;;2.17;;
19049;SDS011;9657;45.940;12.840;2023-04-25T12:40:00;3.20;;;1.90;;
19049;SDS011;9657;45.940;12.840;2023-04-25T12:42:28;2.30;;;1.40;;
19049;SDS011;9657;45.940;12.840;2023-04-25T12:44:55;4.10;;;2.20;;
19049;SDS011;9657;45.940;12.840;2023-04-25T12:47:22;3.10;;;2.00;;
19049;SDS011;9657;45.940;12.840;2023-04-25T12:49:50;1.97;;;1.43;;
19049;SDS011;9657;45.940;12.840;2023-04-25T12:52:17;2.27;;;1.70;;
19049;SDS011;9657;45.940;12.840;2023-04-25T12:54:45;5.33;;;2.07;;
19049;SDS011;9657;45.940;12.840;2023-04-25T12:57:12;3.83;;;1.80;;
19049;SDS011;9657;45.940;12.840;2023-04-25T12:59:39;2.60;;;2.00;;
19049;SDS011;9657;45.940;12.840;2023-04-25T13:02:06;3.67;;;1.60;;
19049;SDS011;9657;45.940;12.840;2023-04-25T13:04:33;1.90;;;1.70;;
19049;SDS011;9657;45.940;12.840;2023-04-25T13:07:01;3.13;;;1.60;;
19049;SDS011;9657;45.940;12.840;2023-04-25T13:09:28;2.60;;;1.90;;
19049;SDS011;9657;45.940;12.840;2023-04-25T13:11:57;4.13;;;1.87;;
19049;SDS011;9657;45.940;12.840;2023-04-25T13:14:24;3.93;;;1.67;;
19049;SDS011;9657;45.940;12.840;2023-04-25T13:16:51;2.00;;;1.60;;
19049;SDS011;9657;45.940;12.840;2023-04-25T13:19:18;2.57;;;1.83;;
19049;SDS011;9657;45.940;12.840;2023-04-25T13:21:45;3.43;;;1.83;;
19049;SDS011;9657;45.940;12.840;2023-04-25T13:24:12;3.00;;;1.90;;
19049;SDS011;9657;45.940;12.840;2023-04-25T13:26:39;3.13;;;1.80;;
19049;SDS011;9657;45.940;12.840;2023-04-25T13:29:07;3.10;;;1.80;;
19049;SDS011;9657;45.940;12.840;2023-04-25T13:31:34;3.53;;;2.27;;
19049;SDS011;9657;45.940;12.840;2023-04-25T13:34:01;3.27;;;2.17;;
19049;SDS011;9657;45.940;12.840;2023-04-25T13:36:28;4.07;;;2.10;;
19049;SDS011;9657;45.940;12.840;2023-04-25T13:38:56;4.80;;;2.13;;
19049;SDS011;9657;45.940;12.840;2023-04-25T13:41:24;4.37;;;1.93;;
19049;SDS011;9657;45.940;12.840;2023-04-25T13:43:51;5.67;;;2.27;;
19049;SDS011;9657;45.940;12.840;2023-04-25T13:46:19;4.30;;;1.97;;
19049;SDS011;9657;45.940;12.840;2023-04-25T13:48:46;5.77;;;2.07;;
19049;SDS011;9657;45.940;12.840;2023-04-25T13:51:15;3.73;;;1.77;;
19049;SDS011;9657;45.940;12.840;2023-04-25T13:53:43;3.13;;;2.03;;
19049;SDS011;9657;45.940;12.840;2023-04-25T13:56:10;6.47;;;2.17;;
19049;SDS011;9657;45.940;12.840;2023-04-25T13:58:37;4.87;;;2.20;;
19049;SDS011;9657;45.940;12.840;2023-04-25T14:01:05;5.30;;;2.23;;
19049;SDS011;9657;45.940;12.840;2023-04-25T14:03:33;3.40;;;2.23;;
19049;SDS011;9657;45.940;12.840;2023-04-25T14:06:00;3.90;;;2.30;;
19049;SDS011;9657;45.940;12.840;2023-04-25T14:08:27;6.93;;;2.20;;
19049;SDS011;9657;45.940;12.840;2023-04-25T14:10:54;6.23;;;2.23;;
19049;SDS011;9657;45.940;12.840;2023-04-25T14:13:22;7.27;;;2.87;;
19049;SDS011;9657;45.940;12.840;2023-04-25T14:15:50;12.40;;;3.07;;
19049;SDS011;9657;45.940;12.840;2023-04-25T14:18:17;10.27;;;2.50;;
19049;SDS011;9657;45.940;12.840;2023-04-25T14:20:45;8.10;;;2.90;;
19049;SDS011;9657;45.940;12.840;2023-04-25T14:23:13;11.93;;;3.10;;
19049;SDS011;9657;45.940;12.840;2023-04-25T14:25:43;6.57;;;2.90;;
19049;SDS011;9657;45.940;12.840;2023-04-25T14:28:10;5.53;;;2.37;;
19049;SDS011;9657;45.940;12.840;2023-04-25T14:30:37;7.07;;;2.73;;
19049;SDS011;9657;45.940;12.840;2023-04-25T14:33:04;11.07;;;2.80;;
19049;SDS011;9657;45.940;12.840;2023-04-25T14:35:31;6.40;;;2.47;;
19049;SDS011;9657;45.940;12.840;2023-04-25T14:37:59;5.17;;;2.63;;
19049;SDS011;9657;45.940;12.840;2023-04-25T14:40:26;5.47;;;2.43;;
19049;SDS011;9657;45.940;12.840;2023-04-25T14:42:54;4.67;;;1.97;;
19049;SDS011;9657;45.940;12.840;2023-04-25T14:45:21;5.77;;;2.27;;
19049;SDS011;9657;45.940;12.840;2023-04-25T14:47:48;5.78;;;2.60;;
19049;SDS011;9657;45.940;12.840;2023-04-25T14:50:15;4.90;;;2.00;;
19049;SDS011;9657;45.940;12.840;2023-04-25T14:52:43;4.13;;;2.23;;
19049;SDS011;9657;45.940;12.840;2023-04-25T14:55:12;4.87;;;2.73;;
19049;SDS011;9657;45.940;12.840;2023-04-25T14:57:39;4.23;;;2.00;;